Prescott Valley, AZ

9:18 PM MST on July 23, 2016 (GMT -0700)
Prescott Valley | | Change Station

Elev 5020 ft 34.61 °N, 112.32 °W | Updated 3 minutes ago

Clear
Clear
81.3 °F
Feels Like 79 °F
N
6.0
Wind Variable Wind from NNE
Gusts 6.0 mph

Today
High -- | Low -- °F
--% Chance of Precip.
Yesterday
High -- | Low -- °F
Precip. -- in
Pressure 29.83 in
Visibility 10.0 miles
Clouds Clear
Heat Index 79 °F
Dew Point 35 °F
Humidity 19%
Rainfall 0.00 in
Snow Depth Not available.
5:33 AM 7:37 PM
Waning Gibbous, 80% visible
METAR KPRC 240353Z VRB03G18KT 10SM CLR 29/09 A3012 RMK AO2 SLP100 T02890089
Pressure 29.83 in
Visibility 10.0 miles
Clouds Clear
Heat Index 79 °F
Dew Point 35 °F
Humidity 19%
Rainfall 0.00 in
Snow Depth Not available.
5:33 AM 7:37 PM
Waning Gibbous, 80% visible
METAR KPRC 240353Z VRB03G18KT 10SM CLR 29/09 A3012 RMK AO2 SLP100 T02890089

10-Day Weather Forecast

Almanac

Astronomy

Jul. 23, 2016 Rise Set
Actual Time
Civil Twilight
Nautical Twilight
Astronomical Twilight
Moon
Length of Visible Light
Length of Day
Tomorrow will be .
, % of the Moon is Illuminated

Today's Extremes

State Highs State Lows

Community

WunderPhotos

Upload Photos

1,927,026 photos uploaded!

WunderBlog® & News

Nearby

Air Quality

  Air Quality AQ Index Pollutant
Not available.

Snow Depth

Station Depth Elevation

Earthquake Activity

City Distance Mag. Time & Date
Minimum magnitude displayed is 2.5.

Coastal Water Temperatures

Place Temperature

Stations

Nearby Weather Stations

Station Location Temp. Windchill Dew Point Humidity Wind Precip. Elev Updated Type
                   

Watches & Warnings

There are currently no watches in effect.